createdAt,value
2018-06-15T00:00:27.655Z,16.80
2018-06-15T00:03:01.665Z,16.80
2018-06-15T00:05:30.380Z,16.80
2018-06-15T00:08:00.098Z,16.70
2018-06-15T00:10:28.774Z,16.60
2018-06-15T00:12:57.978Z,16.50
2018-06-15T00:15:26.687Z,16.40
2018-06-15T00:17:55.377Z,16.50
2018-06-15T00:20:24.006Z,16.50
2018-06-15T00:22:52.641Z,16.50
2018-06-15T00:25:21.270Z,16.40
2018-06-15T00:27:49.935Z,16.40
2018-06-15T00:30:18.565Z,16.40
2018-06-15T00:32:47.207Z,16.50
2018-06-15T00:35:15.888Z,16.40
2018-06-15T00:37:44.564Z,16.40
2018-06-15T00:40:13.246Z,16.50
2018-06-15T00:42:41.930Z,16.50
2018-06-15T00:45:10.623Z,16.50
2018-06-15T00:47:39.222Z,16.50
2018-06-15T00:50:07.892Z,16.60
2018-06-15T00:52:36.550Z,16.60
2018-06-15T00:55:05.405Z,16.50
2018-06-15T00:57:45.155Z,16.50
2018-06-15T01:00:13.848Z,16.50
2018-06-15T01:02:42.573Z,16.40
2018-06-15T01:05:11.160Z,16.40
2018-06-15T01:07:39.903Z,16.30
2018-06-15T01:10:08.533Z,16.30
2018-06-15T01:12:37.197Z,16.40
2018-06-15T01:15:07.204Z,16.30
2018-06-15T01:17:36.162Z,16.30
2018-06-15T01:20:05.713Z,16.30
2018-06-15T01:22:34.383Z,16.30
2018-06-15T01:25:03.040Z,16.30
2018-06-15T01:27:31.712Z,16.30
2018-06-15T01:30:00.391Z,16.30
2018-06-15T01:32:29.028Z,16.30
2018-06-15T01:34:57.662Z,16.30
2018-06-15T01:37:26.309Z,16.30
2018-06-15T01:39:54.895Z,16.30
2018-06-15T01:42:23.545Z,16.20
2018-06-15T01:44:52.198Z,16.20
2018-06-15T01:47:20.894Z,16.30
2018-06-15T01:49:49.570Z,16.20
2018-06-15T01:52:18.202Z,16.20
2018-06-15T01:54:46.843Z,16.10
2018-06-15T01:57:15.521Z,16.10
2018-06-15T01:59:44.153Z,16.10
2018-06-15T02:02:12.783Z,16.20
2018-06-15T02:04:41.404Z,16.10
2018-06-15T02:07:11.023Z,16.10
2018-06-15T02:12:07.954Z,16.00
2018-06-15T02:14:36.608Z,16.00
2018-06-15T02:17:05.602Z,16.00
2018-06-15T02:19:34.221Z,16.00
2018-06-15T02:22:02.882Z,15.90
2018-06-15T02:24:31.536Z,15.70
2018-06-15T02:27:00.182Z,15.60
2018-06-15T02:29:28.907Z,15.60
2018-06-15T02:31:57.506Z,15.50
2018-06-15T02:34:26.217Z,15.40
2018-06-15T02:36:54.789Z,15.30
2018-06-15T02:39:23.398Z,15.20
2018-06-15T02:41:51.980Z,15.20
2018-06-15T02:44:20.621Z,15.20
2018-06-15T02:46:49.233Z,15.20
2018-06-15T02:49:24.879Z,15.10
2018-06-15T02:51:53.567Z,15.20
2018-06-15T02:54:22.220Z,15.10
2018-06-15T02:56:50.917Z,15.10
2018-06-15T02:59:19.621Z,15.10
2018-06-15T03:01:48.567Z,15.20
2018-06-15T03:04:17.392Z,15.20
2018-06-15T03:06:46.042Z,15.20
2018-06-15T03:09:15.328Z,15.30
2018-06-15T03:11:44.056Z,15.40
2018-06-15T03:14:12.702Z,15.50
2018-06-15T03:16:41.349Z,15.70
2018-06-15T03:19:10.134Z,15.70
2018-06-15T03:21:38.787Z,15.80
2018-06-15T03:24:07.433Z,15.90
2018-06-15T03:26:36.056Z,16.00
2018-06-15T03:29:04.655Z,15.90
2018-06-15T03:31:33.399Z,15.90
2018-06-15T03:34:02.060Z,16.00
2018-06-15T03:36:30.699Z,16.00
2018-06-15T03:38:59.583Z,16.00
2018-06-15T03:41:28.230Z,16.00
2018-06-15T03:43:57.310Z,16.00
2018-06-15T03:46:25.903Z,16.00
2018-06-15T03:48:54.588Z,16.10
2018-06-15T03:51:23.199Z,16.20
2018-06-15T03:53:51.865Z,16.20
2018-06-15T03:56:20.494Z,16.30
2018-06-15T03:58:49.237Z,16.30
2018-06-15T04:01:17.845Z,16.30
2018-06-15T04:03:46.532Z,16.30
2018-06-15T04:06:15.180Z,16.40
2018-06-15T04:08:43.745Z,16.40
2018-06-15T04:11:12.505Z,16.40
2018-06-15T04:13:41.120Z,16.40
2018-06-15T04:16:09.766Z,16.40
2018-06-15T04:18:38.392Z,16.40
2018-06-15T04:21:07.229Z,16.40
2018-06-15T04:23:35.810Z,16.30
2018-06-15T04:26:04.448Z,16.40
2018-06-15T04:28:33.919Z,16.40
2018-06-15T04:31:02.538Z,16.50
2018-06-15T04:33:31.126Z,16.50
2018-06-15T04:35:59.742Z,16.60
2018-06-15T04:38:28.493Z,16.70
2018-06-15T04:40:57.082Z,16.80
2018-06-15T04:43:25.728Z,16.80
2018-06-15T04:45:54.385Z,16.80
2018-06-15T04:48:23.075Z,16.80
2018-06-15T04:50:51.733Z,16.90
2018-06-15T04:53:20.339Z,17.00
2018-06-15T04:55:48.989Z,17.10
2018-06-15T04:58:17.575Z,17.10
2018-06-15T05:00:46.190Z,17.20
2018-06-15T05:03:15.783Z,17.10
2018-06-15T05:05:45.278Z,17.10
2018-06-15T05:08:14.017Z,17.30
2018-06-15T05:10:43.486Z,17.30
2018-06-15T05:13:12.297Z,17.20
2018-06-15T05:15:40.931Z,17.30
2018-06-15T05:18:09.554Z,17.30
2018-06-15T05:20:38.307Z,17.40
2018-06-15T05:23:07.009Z,17.50
2018-06-15T05:25:35.621Z,17.40
2018-06-15T05:28:04.250Z,17.40
2018-06-15T05:30:33.096Z,17.40
2018-06-15T05:33:01.686Z,17.50
2018-06-15T05:35:30.386Z,17.60
2018-06-15T05:37:59.035Z,17.80
2018-06-15T05:40:27.810Z,17.80
2018-06-15T05:42:56.449Z,17.80
2018-06-15T05:45:25.125Z,17.80
2018-06-15T05:47:53.865Z,18.00
2018-06-15T05:50:22.533Z,18.00
2018-06-15T05:52:51.181Z,17.80
2018-06-15T05:55:19.891Z,17.90
2018-06-15T05:57:48.602Z,17.90
2018-06-15T06:00:17.197Z,17.80
2018-06-15T06:02:45.904Z,17.70
2018-06-15T06:05:14.538Z,17.80
2018-06-15T06:07:43.218Z,17.70
2018-06-15T06:10:11.959Z,17.80
2018-06-15T06:12:40.628Z,17.80
2018-06-15T06:15:09.206Z,18.00
2018-06-15T06:17:37.776Z,18.30
2018-06-15T06:20:07.968Z,19.00
2018-06-15T06:22:36.568Z,19.50
2018-06-15T06:25:05.527Z,20.20
2018-06-15T06:27:34.151Z,20.50
2018-06-15T06:30:02.989Z,20.20
2018-06-15T06:32:31.628Z,19.80
2018-06-15T06:35:00.208Z,19.80
2018-06-15T06:37:28.941Z,19.70
2018-06-15T06:42:26.003Z,19.60
2018-06-15T06:44:54.638Z,19.40
2018-06-15T06:47:23.358Z,19.60
2018-06-15T06:49:52.147Z,20.20
2018-06-15T06:52:20.826Z,20.60
2018-06-15T06:54:49.487Z,20.90
2018-06-15T06:57:18.105Z,21.30
2018-06-15T06:59:46.657Z,21.40
2018-06-15T07:02:15.343Z,21.30
2018-06-15T07:04:44.048Z,21.10
2018-06-15T07:07:12.623Z,21.00
2018-06-15T07:09:41.297Z,20.80
2018-06-15T07:12:10.014Z,21.20
2018-06-15T07:14:38.623Z,21.20
2018-06-15T07:17:07.355Z,21.40
2018-06-15T07:19:36.030Z,21.40
2018-06-15T07:22:11.299Z,21.50
2018-06-15T07:24:39.900Z,21.30
2018-06-15T07:27:08.612Z,21.40
2018-06-15T07:29:37.313Z,21.40
2018-06-15T07:32:06.238Z,21.10
2018-06-15T07:34:35.389Z,21.10
2018-06-15T07:37:04.098Z,20.90
2018-06-15T07:39:33.014Z,20.90
2018-06-15T07:42:01.726Z,20.80
2018-06-15T07:44:30.421Z,20.80
2018-06-15T07:46:59.080Z,20.60
2018-06-15T07:49:27.701Z,20.60
2018-06-15T07:51:56.504Z,20.50
2018-06-15T07:54:25.141Z,20.50
2018-06-15T07:56:53.875Z,20.60
2018-06-15T07:59:22.611Z,20.50
2018-06-15T08:01:51.310Z,20.30
2018-06-15T08:04:21.279Z,20.40
2018-06-15T08:09:18.985Z,20.80
2018-06-15T08:11:48.760Z,20.80
2018-06-15T08:14:17.411Z,20.70
2018-06-15T08:16:46.077Z,20.70
2018-06-15T08:19:14.731Z,20.80
2018-06-15T08:21:43.372Z,21.00
2018-06-15T08:24:12.026Z,21.10
2018-06-15T08:26:41.604Z,21.30
2018-06-15T08:29:11.068Z,21.40
2018-06-15T08:31:39.680Z,21.50
2018-06-15T08:34:08.308Z,21.50
2018-06-15T08:36:37.150Z,21.70
2018-06-15T08:39:08.914Z,21.90
2018-06-15T08:41:37.852Z,22.00
2018-06-15T08:44:08.279Z,22.20
2018-06-15T08:46:37.334Z,22.20
2018-06-15T08:49:06.063Z,21.90
2018-06-15T08:51:34.689Z,22.00
2018-06-15T08:54:03.349Z,22.20
2018-06-15T08:56:32.271Z,22.20
2018-06-15T08:59:01.885Z,21.90
2018-06-15T09:01:31.650Z,22.00
2018-06-15T09:04:00.324Z,22.10
2018-06-15T09:06:29.028Z,22.10
2018-06-15T09:08:57.964Z,22.20
2018-06-15T09:11:26.577Z,22.20
2018-06-15T09:13:55.292Z,22.20
2018-06-15T09:16:24.760Z,22.20
2018-06-15T09:18:53.407Z,22.30
2018-06-15T09:21:22.039Z,22.30
2018-06-15T09:23:50.693Z,22.50
2018-06-15T09:26:19.366Z,22.50
2018-06-15T09:28:48.072Z,22.70
2018-06-15T09:31:16.710Z,22.60
2018-06-15T09:33:45.348Z,22.70
2018-06-15T09:36:13.982Z,22.70
2018-06-15T09:38:42.598Z,22.80
2018-06-15T09:41:11.582Z,22.90
2018-06-15T09:43:40.241Z,22.90
2018-06-15T09:46:08.974Z,23.00
2018-06-15T09:48:41.626Z,23.00
2018-06-15T09:51:10.641Z,23.00
2018-06-15T09:53:39.297Z,22.90
2018-06-15T09:56:07.983Z,22.80
2018-06-15T09:58:37.541Z,22.80
2018-06-15T10:01:11.662Z,22.90
2018-06-15T10:03:40.916Z,22.90
2018-06-15T10:06:09.571Z,22.90
2018-06-15T10:08:38.378Z,22.80
2018-06-15T10:11:07.124Z,22.90
2018-06-15T10:13:35.856Z,22.80
2018-06-15T10:16:04.484Z,22.80
2018-06-15T10:18:33.130Z,22.90
2018-06-15T10:21:01.741Z,23.00
2018-06-15T10:23:30.654Z,23.00
2018-06-15T10:25:59.278Z,22.90
2018-06-15T10:28:27.910Z,23.00
2018-06-15T10:30:57.249Z,23.00
2018-06-15T10:33:25.891Z,22.90
2018-06-15T10:35:54.503Z,23.10
2018-06-15T10:38:23.110Z,23.20
2018-06-15T10:40:51.706Z,23.40
2018-06-15T10:43:20.570Z,23.40
2018-06-15T10:45:49.247Z,23.30
2018-06-15T10:48:17.893Z,23.20
2018-06-15T10:50:46.489Z,23.10
2018-06-15T10:53:15.142Z,22.90
2018-06-15T10:55:44.159Z,22.90
2018-06-15T10:58:12.781Z,23.00
2018-06-15T11:00:41.443Z,23.00
2018-06-15T11:03:10.073Z,22.80
2018-06-15T11:05:38.810Z,22.60
2018-06-15T11:08:07.418Z,22.30
2018-06-15T11:10:36.136Z,22.20
2018-06-15T11:13:04.807Z,22.50
2018-06-15T11:15:33.388Z,22.60
2018-06-15T11:18:02.023Z,22.70
2018-06-15T11:20:30.659Z,22.70
2018-06-15T11:22:59.365Z,22.80
2018-06-15T11:25:28.071Z,22.90
2018-06-15T11:27:56.711Z,23.10
2018-06-15T11:30:25.496Z,23.40
2018-06-15T11:32:54.318Z,23.60
2018-06-15T11:35:22.957Z,23.90
2018-06-15T11:37:51.582Z,24.10
2018-06-15T11:40:20.245Z,24.40
2018-06-15T11:42:49.057Z,24.70
2018-06-15T11:45:17.769Z,24.80
2018-06-15T11:47:46.555Z,24.90
2018-06-15T11:50:16.628Z,24.90
2018-06-15T11:52:45.318Z,24.80
2018-06-15T11:55:14.033Z,24.90
2018-06-15T11:57:42.808Z,25.10
2018-06-15T12:00:11.536Z,24.90
2018-06-15T12:02:40.367Z,24.80
2018-06-15T12:05:09.105Z,24.90
2018-06-15T12:07:37.742Z,25.00
2018-06-15T12:10:06.417Z,25.00
2018-06-15T12:12:35.866Z,25.00
2018-06-15T12:15:04.661Z,24.90
2018-06-15T12:17:33.605Z,24.90
2018-06-15T12:20:02.246Z,24.90
2018-06-15T12:22:30.909Z,25.00
2018-06-15T12:24:59.744Z,25.00
2018-06-15T12:27:28.444Z,25.20
2018-06-15T12:29:57.154Z,25.10
2018-06-15T12:32:25.755Z,25.30
2018-06-15T12:34:54.646Z,25.20
2018-06-15T12:37:23.465Z,25.30
2018-06-15T12:39:52.331Z,25.40
2018-06-15T12:42:21.024Z,25.30
2018-06-15T12:44:49.749Z,25.30
2018-06-15T12:47:18.632Z,25.20
2018-06-15T12:49:47.411Z,25.10
2018-06-15T12:52:16.109Z,25.10
2018-06-15T12:54:44.839Z,25.10
2018-06-15T12:57:13.468Z,25.30
2018-06-15T12:59:42.068Z,25.20
2018-06-15T13:04:38.989Z,24.60
2018-06-15T13:07:09.008Z,24.70
2018-06-15T13:09:37.719Z,24.60
2018-06-15T13:12:06.368Z,24.60
2018-06-15T13:14:35.055Z,24.70
2018-06-15T13:17:04.164Z,24.90
2018-06-15T13:19:32.994Z,24.80
2018-06-15T13:22:01.759Z,24.80
2018-06-15T13:27:04.391Z,24.80
2018-06-15T13:29:33.404Z,25.00
2018-06-15T13:32:02.110Z,25.30
2018-06-15T13:34:31.100Z,25.50
2018-06-15T13:36:59.787Z,25.60
2018-06-15T13:39:28.588Z,25.70
2018-06-15T13:41:57.494Z,25.80
2018-06-15T13:44:26.124Z,25.80
2018-06-15T13:46:54.951Z,25.80
2018-06-15T13:49:23.828Z,26.00
2018-06-15T13:51:53.506Z,25.90
2018-06-15T13:54:22.267Z,25.50
2018-06-15T13:56:51.657Z,25.10
2018-06-15T13:59:20.316Z,25.40
2018-06-15T14:01:49.467Z,25.60
2018-06-15T14:04:18.261Z,25.50
2018-06-15T14:06:46.923Z,25.30
2018-06-15T14:09:15.616Z,25.50
2018-06-15T14:11:44.365Z,25.40
2018-06-15T14:14:13.261Z,25.10
2018-06-15T14:16:44.017Z,25.00
2018-06-15T14:19:12.724Z,24.80
2018-06-15T14:24:09.845Z,24.70
2018-06-15T14:26:38.577Z,24.60
2018-06-15T14:29:07.435Z,24.80
2018-06-15T14:31:36.171Z,24.80
2018-06-15T14:34:04.879Z,24.80
2018-06-15T14:36:33.789Z,24.70
2018-06-15T14:39:02.504Z,24.70
2018-06-15T14:41:31.259Z,24.90
2018-06-15T14:44:00.079Z,24.80
2018-06-15T14:46:28.836Z,24.30
2018-06-15T14:48:57.833Z,24.30
2018-06-15T14:51:26.593Z,24.30
2018-06-15T14:53:55.419Z,24.50
2018-06-15T14:56:24.206Z,24.70
2018-06-15T14:58:52.866Z,24.90
2018-06-15T15:01:21.585Z,25.10
2018-06-15T15:03:50.206Z,25.30
2018-06-15T15:06:18.832Z,25.30
2018-06-15T15:08:47.550Z,25.50
2018-06-15T15:11:16.266Z,25.70
2018-06-15T15:13:44.924Z,25.70
2018-06-15T15:16:13.658Z,25.90
2018-06-15T15:18:42.372Z,25.60
2018-06-15T15:21:11.043Z,25.70
2018-06-15T15:23:39.738Z,25.90
2018-06-15T15:26:08.490Z,26.00
2018-06-15T15:28:37.155Z,26.20
2018-06-15T15:31:05.836Z,26.10
2018-06-15T15:33:34.632Z,26.20
2018-06-15T15:36:03.692Z,26.30
2018-06-15T15:38:32.372Z,26.10
2018-06-15T15:41:01.150Z,26.10
2018-06-15T15:43:29.860Z,26.40
2018-06-15T15:45:58.486Z,26.40
2018-06-15T15:48:27.159Z,26.40
2018-06-15T15:50:55.859Z,26.40
2018-06-15T15:55:52.859Z,26.20
2018-06-15T15:58:22.151Z,26.30
2018-06-15T16:00:50.995Z,26.30
2018-06-15T16:03:19.671Z,26.30
2018-06-15T16:05:48.311Z,26.20
2018-06-15T16:08:17.052Z,26.20
2018-06-15T16:10:45.750Z,26.00
2018-06-15T16:13:14.461Z,25.90
2018-06-15T16:15:43.209Z,25.90
2018-06-15T16:18:11.918Z,26.10
2018-06-15T16:20:40.586Z,26.00
2018-06-15T16:23:09.349Z,25.80
2018-06-15T16:25:37.976Z,25.80
2018-06-15T16:30:35.114Z,25.70
2018-06-15T16:33:03.958Z,25.70
2018-06-15T16:35:32.692Z,25.80
2018-06-15T16:38:01.405Z,25.80
2018-06-15T16:40:30.011Z,25.80
2018-06-15T16:42:58.601Z,25.90
2018-06-15T16:45:27.232Z,26.00
2018-06-15T16:47:55.866Z,25.80
2018-06-15T16:50:24.591Z,25.40
2018-06-15T16:52:53.321Z,25.20
2018-06-15T16:55:22.109Z,25.10
2018-06-15T16:57:51.080Z,25.10
2018-06-15T17:00:19.805Z,25.20
2018-06-15T17:02:48.589Z,25.40
2018-06-15T17:05:17.201Z,26.50
2018-06-15T17:07:45.845Z,27.50
2018-06-15T17:10:14.608Z,27.30
2018-06-15T17:12:43.243Z,27.50
2018-06-15T17:15:12.006Z,28.00
2018-06-15T17:17:40.685Z,28.00
2018-06-15T17:20:09.322Z,27.80
2018-06-15T17:22:37.966Z,27.40
2018-06-15T17:25:06.631Z,26.40
2018-06-15T17:27:35.294Z,26.20
2018-06-15T17:30:04.070Z,26.30
2018-06-15T17:32:32.718Z,26.60
2018-06-15T17:35:01.459Z,27.10
2018-06-15T17:37:30.581Z,27.60
2018-06-15T17:39:59.287Z,27.50
2018-06-15T17:42:27.991Z,27.20
2018-06-15T17:44:56.859Z,27.10
2018-06-15T17:47:25.488Z,26.50
2018-06-15T17:49:54.125Z,25.90
2018-06-15T17:52:22.796Z,25.60
2018-06-15T17:54:51.526Z,25.20
2018-06-15T17:57:20.105Z,25.10
2018-06-15T17:59:51.841Z,25.10
2018-06-15T18:02:20.532Z,25.00
2018-06-15T18:04:49.268Z,24.90
2018-06-15T18:07:17.983Z,25.00
2018-06-15T18:09:46.743Z,24.90
2018-06-15T18:12:15.508Z,24.70
2018-06-15T18:14:44.080Z,24.70
2018-06-15T18:17:12.808Z,24.60
2018-06-15T18:19:41.334Z,24.60
2018-06-15T18:22:10.031Z,24.50
2018-06-15T18:27:07.237Z,24.30
2018-06-15T18:29:35.942Z,24.20
2018-06-15T18:32:04.678Z,24.10
2018-06-15T18:34:33.411Z,24.00
2018-06-15T18:37:02.080Z,24.10
2018-06-15T18:39:30.820Z,24.10
2018-06-15T18:41:59.494Z,24.10
2018-06-15T18:44:28.186Z,24.10
2018-06-15T18:46:56.899Z,24.10
2018-06-15T18:49:25.565Z,24.10
2018-06-15T18:51:54.145Z,24.10
2018-06-15T18:54:22.799Z,24.00
2018-06-15T18:56:51.393Z,24.00
2018-06-15T18:59:20.013Z,23.90
2018-06-15T19:01:48.744Z,24.00
2018-06-15T19:04:17.430Z,24.00
2018-06-15T19:06:46.055Z,23.80
2018-06-15T19:09:14.782Z,23.80
2018-06-15T19:11:43.399Z,23.70
2018-06-15T19:14:12.030Z,23.70
2018-06-15T19:16:40.725Z,23.60
2018-06-15T19:19:09.451Z,23.60
2018-06-15T19:21:38.254Z,23.60
2018-06-15T19:24:07.046Z,23.60
2018-06-15T19:26:35.722Z,23.50
2018-06-15T19:29:04.494Z,23.50
2018-06-15T19:31:33.008Z,23.40
2018-06-15T19:34:01.710Z,23.40
2018-06-15T19:36:30.439Z,23.30
2018-06-15T19:38:59.076Z,23.30
2018-06-15T19:41:27.773Z,23.30
2018-06-15T19:43:56.402Z,23.20
2018-06-15T19:46:25.303Z,23.10
2018-06-15T19:48:54.367Z,23.00
2018-06-15T19:51:23.047Z,23.00
2018-06-15T19:53:51.724Z,22.90
2018-06-15T19:56:20.390Z,22.80
2018-06-15T19:58:49.080Z,22.80
2018-06-15T20:01:18.052Z,22.70
2018-06-15T20:03:46.703Z,22.60
2018-06-15T20:06:15.324Z,22.70
2018-06-15T20:08:43.939Z,22.80
2018-06-15T20:11:12.623Z,22.70
2018-06-15T20:13:41.235Z,22.70
2018-06-15T20:16:09.938Z,22.60
2018-06-15T20:18:38.614Z,22.60
2018-06-15T20:21:07.414Z,22.50
2018-06-15T20:23:36.014Z,22.50
2018-06-15T20:28:33.054Z,22.40
2018-06-15T20:31:01.695Z,22.40
2018-06-15T20:33:30.383Z,22.30
2018-06-15T20:35:59.056Z,22.40
2018-06-15T20:38:28.168Z,22.30
2018-06-15T20:40:56.757Z,22.30
2018-06-15T20:43:25.384Z,22.30
2018-06-15T20:45:54.002Z,22.30
2018-06-15T20:48:22.683Z,22.30
2018-06-15T20:50:51.249Z,22.30
2018-06-15T20:53:19.851Z,22.30
2018-06-15T20:55:48.436Z,22.20
2018-06-15T20:58:17.037Z,22.30
2018-06-15T21:00:45.659Z,22.30
2018-06-15T21:03:14.401Z,22.10
2018-06-15T21:05:43.056Z,22.10
2018-06-15T21:08:11.773Z,22.10
2018-06-15T21:10:40.383Z,22.00
2018-06-15T21:13:08.974Z,22.00
2018-06-15T21:15:37.655Z,22.00
2018-06-15T21:18:06.356Z,21.90
2018-06-15T21:20:34.947Z,21.80
2018-06-15T21:23:03.680Z,21.80
2018-06-15T21:25:32.366Z,21.70
2018-06-15T21:28:00.981Z,21.60
2018-06-15T21:30:29.649Z,21.50
2018-06-15T21:32:58.269Z,21.40
2018-06-15T21:35:26.874Z,21.40
2018-06-15T21:37:55.516Z,21.30
2018-06-15T21:40:24.117Z,21.30
2018-06-15T21:42:52.766Z,21.30
2018-06-15T21:45:21.377Z,21.20
2018-06-15T21:47:50.074Z,21.20
2018-06-15T21:50:18.685Z,21.10
2018-06-15T21:52:47.381Z,21.00
2018-06-15T21:55:16.125Z,20.90
2018-06-15T21:57:44.754Z,20.70
2018-06-15T22:00:13.392Z,20.70
2018-06-15T22:02:41.979Z,20.50
2018-06-15T22:07:39.521Z,20.40
2018-06-15T22:10:08.211Z,20.40
2018-06-15T22:12:36.922Z,20.40
2018-06-15T22:15:05.676Z,20.30
2018-06-15T22:17:34.503Z,20.30
2018-06-15T22:20:03.143Z,20.30
2018-06-15T22:22:31.711Z,20.20
2018-06-15T22:25:00.402Z,20.20
2018-06-15T22:27:30.233Z,20.20
2018-06-15T22:29:58.882Z,20.10
2018-06-15T22:32:27.605Z,20.00
2018-06-15T22:34:56.248Z,19.90
2018-06-15T22:37:25.035Z,19.90
2018-06-15T22:39:53.714Z,19.90
2018-06-15T22:42:22.374Z,19.90
2018-06-15T22:44:51.019Z,19.80
2018-06-15T22:47:19.749Z,19.80
2018-06-15T22:49:48.362Z,19.80
2018-06-15T22:52:17.071Z,19.80
2018-06-15T22:54:45.693Z,19.70
2018-06-15T22:57:14.389Z,19.70
2018-06-15T22:59:43.090Z,19.70
2018-06-15T23:02:11.868Z,19.70
2018-06-15T23:04:40.640Z,19.60
2018-06-15T23:07:09.302Z,19.60
2018-06-15T23:09:37.967Z,19.50
2018-06-15T23:12:06.676Z,19.40
2018-06-15T23:14:35.523Z,19.40
2018-06-15T23:17:04.205Z,19.40
2018-06-15T23:19:32.842Z,19.30
2018-06-15T23:22:01.611Z,19.30
2018-06-15T23:24:30.425Z,19.20
2018-06-15T23:26:59.087Z,19.10
2018-06-15T23:29:27.757Z,19.00
2018-06-15T23:31:56.420Z,19.00
2018-06-15T23:34:25.063Z,18.90
2018-06-15T23:36:53.665Z,18.90
2018-06-15T23:39:22.297Z,18.90
2018-06-15T23:41:50.981Z,18.80
2018-06-15T23:44:19.590Z,18.90
2018-06-15T23:46:48.235Z,19.00
2018-06-15T23:49:16.889Z,19.00
2018-06-15T23:51:45.650Z,19.00
2018-06-15T23:54:14.310Z,19.00
2018-06-15T23:56:43.027Z,19.00
2018-06-15T23:59:11.657Z,19.00
